Time;durP1;ratioP1;P1;durP2;ratioP2;P2;SDS_P1;SDS_P2;PMS_P1;PMS_P2;Temp;Humidity;BMP_temperature;BMP_pressure;BME280_temperature;BME280_humidity;BME280_pressure;Samples;Min_cycle;Max_cycle;Signal;HPM_P1;HPM_P2
2021/08/14 00:01:12;;;;;;;16.67;9.75;;;665.60;2227.20;;;;;;5107428;28;20429;-76
2021/08/14 00:03:37;;;;;;;14.07;9.82;;;665.60;2227.20;;;;;;5108038;28;20514;-76
2021/08/14 00:06:03;;;;;;;12.98;9.55;;;640.80;2201.60;;;;;;5104119;28;20044;-76
2021/08/14 00:08:29;;;;;;;12.75;8.80;;;640.80;2227.20;;;;;;5109895;28;20035;-77
2021/08/14 00:10:55;;;;;;;12.50;8.85;;;640.80;2227.20;;;;;;5110177;28;20483;-76
2021/08/14 00:13:20;;;;;;;14.77;8.70;;;640.80;2201.60;;;;;;5102064;28;20040;-76
2021/08/14 00:15:46;;;;;;;15.48;8.63;;;640.80;2227.20;;;;;;5098033;28;20028;-76
2021/08/14 00:18:12;;;;;;;13.48;9.05;;;640.80;2227.20;;;;;;5106884;28;20046;-77
2021/08/14 00:20:38;;;;;;;10.65;7.60;;;640.80;2227.20;;;;;;5107569;28;20024;-76
2021/08/14 00:23:03;;;;;;;12.10;8.10;;;640.80;2227.20;;;;;;5106214;28;20072;-76
2021/08/14 00:25:30;;;;;;;14.15;9.50;;;640.80;2227.20;;;;;;5107793;28;20122;-77
2021/08/14 00:27:55;;;;;;;16.08;10.07;;;640.80;2252.80;;;;;;5110791;28;20119;-78
2021/08/14 00:30:21;;;;;;;11.70;8.60;;;640.80;2252.80;;;;;;5103829;27;20498;-76
2021/08/14 00:32:47;;;;;;;14.73;8.85;;;640.70;2252.80;;;;;;5104399;27;20498;-76
2021/08/14 00:35:13;;;;;;;10.50;7.90;;;640.70;2252.80;;;;;;5108190;28;20039;-76
2021/08/14 00:37:39;;;;;;;11.15;8.10;;;640.70;2252.80;;;;;;5113776;28;20024;-76
2021/08/14 00:40:06;;;;;;;12.23;8.30;;;640.70;2252.80;;;;;;5098113;28;20020;-75
2021/08/14 00:42:32;;;;;;;13.95;8.95;;;640.60;2278.40;;;;;;5109866;28;20024;-76
2021/08/14 00:44:58;;;;;;;15.02;7.90;;;640.60;2278.40;;;;;;5107236;28;20069;-75
2021/08/14 00:47:25;;;;;;;12.00;7.68;;;640.60;2278.40;;;;;;5108780;28;20024;-76
2021/08/14 00:49:51;;;;;;;13.98;8.32;;;640.60;2304.00;;;;;;5110009;27;20031;-76
2021/08/14 00:52:17;;;;;;;11.18;7.80;;;640.50;2304.00;;;;;;5100581;28;20023;-76
2021/08/14 00:54:43;;;;;;;12.30;8.15;;;640.40;2304.00;;;;;;5103123;28;20089;-76
2021/08/14 00:57:08;;;;;;;18.15;9.60;;;640.40;2304.00;;;;;;5100941;28;20467;-76
2021/08/14 00:59:34;;;;;;;11.85;8.82;;;640.40;2329.60;;;;;;5096186;28;20031;-76
2021/08/14 01:02:03;;;;;;;10.20;7.82;;;640.30;2329.60;;;;;;5104064;28;20095;-76
2021/08/14 01:04:29;;;;;;;13.10;8.63;;;640.30;2329.60;;;;;;5101632;28;20051;-76
2021/08/14 01:06:55;;;;;;;12.85;8.32;;;640.30;2329.60;;;;;;5101627;28;20032;-76
2021/08/14 01:09:21;;;;;;;12.75;8.70;;;640.30;2329.60;;;;;;5099935;28;20023;-78
2021/08/14 01:11:48;;;;;;;11.07;8.90;;;640.30;2355.20;;;;;;5106128;28;20066;-77
2021/08/14 01:14:14;;;;;;;11.85;7.93;;;640.20;2355.20;;;;;;5101176;28;20032;-78
2021/08/14 01:16:44;;;;;;;13.68;8.77;;;640.20;2355.20;;;;;;5098987;27;20859;-78
2021/08/14 01:19:09;;;;;;;15.25;9.20;;;640.20;2380.80;;;;;;5109202;28;20416;-77
2021/08/14 01:21:35;;;;;;;11.85;8.65;;;640.10;2380.80;;;;;;5109388;28;20066;-77
2021/08/14 01:24:03;;;;;;;17.70;8.38;;;640.10;2406.40;;;;;;5105964;28;20740;-77
2021/08/14 01:26:30;;;;;;;12.05;8.48;;;640.10;2380.80;;;;;;5098347;28;20032;-77
2021/08/14 01:28:56;;;;;;;10.18;7.88;;;640.00;2406.40;;;;;;5101480;28;20055;-77
2021/08/14 01:31:22;;;;;;;12.30;8.55;;;640.00;2406.40;;;;;;5102712;28;20784;-78
2021/08/14 01:33:48;;;;;;;11.52;9.00;;;640.00;2406.40;;;;;;5097797;28;20046;-77
2021/08/14 01:36:16;;;;;;;10.98;8.57;;;640.00;2406.40;;;;;;5103115;28;20036;-78
2021/08/14 01:38:50;;;;;;;13.50;9.43;;;640.00;2380.80;;;;;;5105941;28;20023;-77
2021/08/14 01:41:16;;;;;;;11.80;8.05;;;640.00;2406.40;;;;;;5106501;28;20012;-77
2021/08/14 01:44:02;;;;;;;15.07;9.50;;;640.00;2406.40;;;;;;5099437;28;20110;-78
2021/08/14 01:46:31;;;;;;;13.55;9.48;;;615.30;2432.00;;;;;;5102357;28;20047;-78
2021/08/14 01:48:56;;;;;;;12.65;8.18;;;615.30;2432.00;;;;;;5103984;28;20023;-77
2021/08/14 01:51:23;;;;;;;10.38;8.80;;;615.30;2432.00;;;;;;5099695;28;20032;-78
2021/08/14 01:53:50;;;;;;;13.27;8.65;;;615.30;2432.00;;;;;;5102456;28;20020;-77
2021/08/14 01:56:16;;;;;;;13.07;8.52;;;615.20;2432.00;;;;;;5101567;28;20031;-77
2021/08/14 01:58:42;;;;;;;12.05;8.82;;;615.20;2432.00;;;;;;5104057;28;20027;-77
2021/08/14 02:01:09;;;;;;;10.85;8.73;;;615.10;2432.00;;;;;;5104116;28;20023;-78
2021/08/14 02:03:35;;;;;;;12.73;9.73;;;615.10;2432.00;;;;;;5103531;28;20054;-78
2021/08/14 02:06:02;;;;;;;14.02;9.95;;;615.10;2432.00;;;;;;5096034;28;20075;-78
2021/08/14 02:08:28;;;;;;;12.77;9.30;;;615.20;2432.00;;;;;;5106298;28;20105;-78
2021/08/14 02:10:54;;;;;;;13.57;9.80;;;615.10;2432.00;;;;;;5103139;28;20089;-78
2021/08/14 02:13:20;;;;;;;12.40;10.10;;;615.20;2432.00;;;;;;5106251;28;20404;-77
2021/08/14 02:15:46;;;;;;;11.88;10.02;;;615.20;2432.00;;;;;;5108714;28;20047;-77
2021/08/14 02:18:11;;;;;;;13.52;10.30;;;615.20;2432.00;;;;;;5106976;28;20034;-77
2021/08/14 02:20:37;;;;;;;15.32;11.00;;;615.10;2432.00;;;;;;5143922;27;20024;-78
2021/08/14 02:23:03;;;;;;;16.45;13.00;;;615.10;2432.00;;;;;;5108154;28;20058;-77
2021/08/14 02:25:29;;;;;;;20.55;12.98;;;615.00;2432.00;;;;;;5108994;28;20032;-77
2021/08/14 02:27:54;;;;;;;17.48;11.93;;;615.00;2432.00;;;;;;5110278;27;20023;-78
2021/08/14 02:30:20;;;;;;;21.25;13.73;;;615.00;2432.00;;;;;;5109703;28;20035;-77
2021/08/14 02:32:47;;;;;;;18.55;12.73;;;615.00;2432.00;;;;;;5107583;28;20050;-79
2021/08/14 02:35:14;;;;;;;16.40;13.43;;;615.00;2432.00;;;;;;5139596;27;20040;-79
2021/08/14 02:37:40;;;;;;;20.27;12.75;;;615.00;2432.00;;;;;;5108812;28;20020;-78
2021/08/14 02:40:08;;;;;;;19.33;13.50;;;615.10;2432.00;;;;;;5107919;28;20035;-78
2021/08/14 02:42:39;;;;;;;20.33;13.48;;;615.10;2432.00;;;;;;5106265;28;20036;-79
2021/08/14 02:45:07;;;;;;;21.30;13.85;;;615.10;2432.00;;;;;;5105018;28;20024;-78
2021/08/14 02:47:33;;;;;;;17.10;14.13;;;615.10;2432.00;;;;;;5103782;28;20039;-79
2021/08/14 02:49:59;;;;;;;21.92;15.05;;;615.10;2432.00;;;;;;5106306;28;20028;-78
2021/08/14 02:52:24;;;;;;;20.67;14.30;;;615.10;2432.00;;;;;;5108910;28;20476;-77
2021/08/14 02:54:50;;;;;;;22.08;14.25;;;615.10;2432.00;;;;;;5115623;28;20107;-77
2021/08/14 02:57:16;;;;;;;19.83;14.07;;;615.10;2432.00;;;;;;5100038;28;20529;-77
2021/08/14 02:59:41;;;;;;;21.17;14.90;;;615.10;2432.00;;;;;;5115826;28;20102;-77
2021/08/14 03:02:07;;;;;;;16.52;12.68;;;615.00;2432.00;;;;;;5106376;27;20027;-76
2021/08/14 03:04:33;;;;;;;17.80;13.10;;;615.00;2432.00;;;;;;5101997;28;20117;-77
2021/08/14 03:06:58;;;;;;;18.27;12.90;;;615.00;2432.00;;;;;;5114616;27;20081;-76
2021/08/14 03:09:24;;;;;;;18.45;12.82;;;614.90;2432.00;;;;;;5115623;28;20023;-76
2021/08/14 03:11:50;;;;;;;17.88;13.27;;;614.90;2432.00;;;;;;5115500;28;20456;-76
2021/08/14 03:14:16;;;;;;;14.00;10.82;;;614.90;2432.00;;;;;;5114865;28;20042;-77
2021/08/14 03:16:42;;;;;;;15.10;10.93;;;614.90;2432.00;;;;;;5115595;28;20090;-76
2021/08/14 03:19:07;;;;;;;15.38;11.23;;;614.90;2432.00;;;;;;5115647;28;20375;-77
2021/08/14 03:21:33;;;;;;;15.20;11.38;;;614.90;2432.00;;;;;;5115397;28;20476;-77
2021/08/14 03:23:59;;;;;;;17.58;11.65;;;614.90;2432.00;;;;;;5112026;28;20562;-76
2021/08/14 03:26:25;;;;;;;16.10;10.68;;;614.80;2432.00;;;;;;5103680;28;20117;-76
2021/08/14 03:28:52;;;;;;;16.23;11.52;;;614.80;2432.00;;;;;;5103138;28;20849;-76
2021/08/14 03:31:21;;;;;;;17.30;12.77;;;615.10;2432.00;;;;;;5097821;28;20482;-77
2021/08/14 03:33:50;;;;;;;16.35;10.43;;;614.80;2432.00;;;;;;5109135;28;20032;-76
2021/08/14 03:36:15;;;;;;;18.13;11.10;;;614.70;2432.00;;;;;;5113936;28;20108;-77
2021/08/14 03:38:42;;;;;;;12.60;10.35;;;614.70;2432.00;;;;;;5113893;28;20437;-76
2021/08/14 03:41:08;;;;;;;16.02;10.93;;;614.60;2432.00;;;;;;5113798;28;20019;-77
2021/08/14 03:43:37;;;;;;;13.25;11.27;;;614.60;2432.00;;;;;;5113626;28;20084;-77
2021/08/14 03:46:04;;;;;;;15.57;10.23;;;614.60;2432.00;;;;;;5107165;28;20040;-77
2021/08/14 03:48:31;;;;;;;15.63;10.55;;;614.50;2432.00;;;;;;5115245;28;20384;-77
2021/08/14 03:50:57;;;;;;;16.58;10.68;;;614.60;2432.00;;;;;;5109988;28;20423;-77
2021/08/14 03:53:23;;;;;;;16.83;11.73;;;614.70;2432.00;;;;;;5103014;28;20032;-76
2021/08/14 03:55:49;;;;;;;13.23;10.82;;;614.60;2432.00;;;;;;5105831;28;20182;-77
2021/08/14 03:58:15;;;;;;;15.38;11.15;;;614.70;2432.00;;;;;;5108871;28;20050;-77
2021/08/14 04:00:40;;;;;;;17.88;11.43;;;614.70;2432.00;;;;;;5108509;28;20024;-77
2021/08/14 04:03:06;;;;;;;15.60;12.77;;;614.80;2432.00;;;;;;5111508;28;20744;-77
2021/08/14 04:05:32;;;;;;;16.23;11.57;;;614.90;2432.00;;;;;;5113145;28;20044;-78
2021/08/14 04:07:58;;;;;;;18.92;14.10;;;614.90;2432.00;;;;;;5122897;28;20092;-77
2021/08/14 04:10:23;;;;;;;18.35;13.68;;;614.90;2432.00;;;;;;5123978;28;20023;-77
2021/08/14 04:12:50;;;;;;;15.82;13.10;;;615.00;2432.00;;;;;;5131670;28;20023;-76
2021/08/14 04:15:16;;;;;;;17.95;12.45;;;615.00;2432.00;;;;;;5109760;28;20050;-77
2021/08/14 04:17:42;;;;;;;15.55;12.38;;;615.20;2432.00;;;;;;5116855;27;20526;-77
2021/08/14 04:20:09;;;;;;;17.25;11.40;;;615.20;2432.00;;;;;;5115074;27;20016;-77
2021/08/14 04:22:35;;;;;;;14.65;10.70;;;615.20;2432.00;;;;;;5113914;27;20019;-76
2021/08/14 04:25:01;;;;;;;16.55;12.15;;;615.30;2432.00;;;;;;5115564;27;20034;-77
2021/08/14 04:27:27;;;;;;;14.20;9.27;;;615.30;2432.00;;;;;;5111170;28;20958;-77
2021/08/14 04:29:52;;;;;;;14.32;9.52;;;640.00;2432.00;;;;;;5106133;28;20130;-78
2021/08/14 04:32:18;;;;;;;13.77;9.88;;;640.00;2432.00;;;;;;5110581;28;20110;-77
2021/08/14 04:34:44;;;;;;;12.93;10.10;;;640.10;2432.00;;;;;;5108126;28;20031;-78
2021/08/14 04:37:09;;;;;;;13.20;9.90;;;640.10;2432.00;;;;;;5112008;28;20036;-78
2021/08/14 04:39:35;;;;;;;15.00;9.57;;;640.20;2432.00;;;;;;5111785;28;20540;-78
2021/08/14 04:42:01;;;;;;;15.98;9.20;;;640.30;2432.00;;;;;;5114214;28;20024;-77
2021/08/14 04:44:27;;;;;;;12.13;10.07;;;640.40;2432.00;;;;;;5113491;28;20059;-77
2021/08/14 04:46:52;;;;;;;13.40;9.18;;;640.30;2432.00;;;;;;5106544;28;20044;-78
2021/08/14 04:49:18;;;;;;;9.50;8.13;;;640.50;2432.00;;;;;;5109918;28;20074;-77
2021/08/14 04:51:44;;;;;;;10.65;9.35;;;640.50;2432.00;;;;;;5113777;28;20073;-78
2021/08/14 04:54:09;;;;;;;16.52;9.60;;;640.60;2432.00;;;;;;5105774;28;20035;-78
2021/08/14 04:56:35;;;;;;;9.50;7.78;;;640.70;2432.00;;;;;;5112598;28;20098;-77
2021/08/14 04:59:01;;;;;;;10.68;8.02;;;640.80;2406.40;;;;;;5112071;28;20043;-76
2021/08/14 05:01:26;;;;;;;11.70;7.88;;;640.90;2406.40;;;;;;5113399;28;20020;-77
2021/08/14 05:03:52;;;;;;;11.30;9.20;;;665.60;2432.00;;;;;;5111905;28;20192;-77
2021/08/14 05:06:18;;;;;;;13.52;8.80;;;665.70;2432.00;;;;;;5107909;28;20464;-76
2021/08/14 05:08:44;;;;;;;13.10;8.73;;;665.80;2432.00;;;;;;5112218;28;20024;-77
2021/08/14 05:11:09;;;;;;;13.07;8.30;;;665.90;2406.40;;;;;;5100784;28;20019;-76
2021/08/14 05:13:35;;;;;;;11.80;8.27;;;666.10;2406.40;;;;;;5097908;28;20024;-77
2021/08/14 05:16:01;;;;;;;16.38;8.85;;;666.10;2406.40;;;;;;5104169;27;20101;-77
2021/08/14 05:18:27;;;;;;;13.45;9.43;;;666.10;2406.40;;;;;;5113449;28;20047;-77
2021/08/14 05:20:52;;;;;;;9.55;7.80;;;666.30;2406.40;;;;;;5111842;28;20050;-77
2021/08/14 05:23:18;;;;;;;14.68;8.63;;;666.30;2406.40;;;;;;5113264;28;20023;-76
2021/08/14 05:25:44;;;;;;;13.43;8.57;;;666.30;2406.40;;;;;;5109806;28;20031;-77
2021/08/14 05:28:09;;;;;;;12.07;8.38;;;666.30;2406.40;;;;;;5101984;28;20081;-77
2021/08/14 05:30:35;;;;;;;12.38;7.93;;;666.50;2406.40;;;;;;5112969;28;20063;-76
2021/08/14 05:33:01;;;;;;;14.57;8.32;;;666.50;2406.40;;;;;;5104909;28;20111;-77
2021/08/14 05:35:27;;;;;;;14.38;8.25;;;666.50;2406.40;;;;;;5105636;28;20107;-77
2021/08/14 05:37:53;;;;;;;9.85;8.32;;;691.20;2406.40;;;;;;5107783;28;20056;-77
2021/08/14 05:40:18;;;;;;;14.63;9.18;;;691.40;2380.80;;;;;;5103945;28;20032;-77
2021/08/14 05:42:44;;;;;;;19.42;9.05;;;691.40;2406.40;;;;;;5094500;28;20067;-77
2021/08/14 05:45:11;;;;;;;15.75;8.75;;;691.60;2406.40;;;;;;5101350;28;20460;-77
2021/08/14 05:47:37;;;;;;;14.05;8.88;;;691.80;2380.80;;;;;;5111247;28;20031;-78
2021/08/14 05:50:03;;;;;;;14.60;8.80;;;691.90;2355.20;;;;;;5111696;28;20392;-77
2021/08/14 05:52:29;;;;;;;14.82;9.30;;;692.10;2329.60;;;;;;5112732;28;20371;-77
2021/08/14 05:54:54;;;;;;;19.77;9.27;;;716.90;2329.60;;;;;;5107349;28;20853;-77
2021/08/14 05:57:20;;;;;;;17.55;8.63;;;717.10;2329.60;;;;;;5109214;28;20027;-78
2021/08/14 05:59:46;;;;;;;13.68;8.27;;;717.20;2329.60;;;;;;5111661;28;20024;-78
2021/08/14 06:02:12;;;;;;;12.00;8.10;;;717.40;2278.40;;;;;;5110459;28;20043;-78
2021/08/14 06:04:37;;;;;;;19.38;9.52;;;717.60;2278.40;;;;;;5106870;28;20059;-78
2021/08/14 06:07:05;;;;;;;15.75;9.32;;;742.60;2278.40;;;;;;5112543;28;20049;-78
2021/08/14 06:09:30;;;;;;;14.07;9.15;;;742.70;2252.80;;;;;;5112625;28;20036;-78
2021/08/14 06:11:56;;;;;;;17.05;8.18;;;743.00;2227.20;;;;;;5111191;28;20391;-78
2021/08/14 06:14:22;;;;;;;17.45;8.43;;;743.10;2201.60;;;;;;5091971;28;20020;-77
2021/08/14 06:16:47;;;;;;;11.85;7.35;;;743.20;2176.00;;;;;;5106042;28;20038;-77
2021/08/14 06:19:13;;;;;;;11.25;7.53;;;768.00;2176.00;;;;;;5106915;28;20387;-77
2021/08/14 06:21:39;;;;;;;11.13;7.50;;;768.20;2124.80;;;;;;5103887;28;20051;-77
2021/08/14 06:24:05;;;;;;;12.55;7.20;;;768.50;2073.60;;;;;;5108970;28;20020;-77
2021/08/14 06:26:30;;;;;;;12.07;6.88;;;768.80;2073.60;;;;;;5101901;28;20031;-77
2021/08/14 06:28:56;;;;;;;11.50;6.93;;;793.70;2073.60;;;;;;5111074;28;20031;-78
2021/08/14 06:31:22;;;;;;;13.38;8.45;;;793.90;2048.00;;;;;;5091931;28;20035;-78
2021/08/14 06:33:48;;;;;;;11.93;7.25;;;794.10;2022.40;;;;;;5092283;28;20028;-78
2021/08/14 06:36:14;;;;;;;12.93;7.15;;;794.20;1996.80;;;;;;5111617;28;20035;-78
2021/08/14 06:38:39;;;;;;;10.63;7.45;;;794.40;1971.20;;;;;;5111235;28;20500;-78
2021/08/14 06:41:05;;;;;;;11.60;7.63;;;819.30;1920.00;;;;;;5107237;28;20103;-79
2021/08/14 06:43:31;;;;;;;14.63;7.75;;;819.60;1920.00;;;;;;5100483;28;20019;-78
2021/08/14 06:45:56;;;;;;;11.63;7.45;;;819.70;1894.40;;;;;;5110933;28;20483;-78
2021/08/14 06:48:22;;;;;;;10.82;7.55;;;819.80;1868.80;;;;;;5110559;28;20085;-78
2021/08/14 06:50:48;;;;;;;13.82;7.75;;;820.10;1843.20;;;;;;5098029;28;20031;-78
2021/08/14 06:53:14;;;;;;;9.77;7.40;;;845.10;1868.80;;;;;;5097337;28;20107;-78
2021/08/14 06:55:39;;;;;;;11.18;7.95;;;845.30;1817.60;;;;;;5111833;28;20055;-78
2021/08/14 06:58:05;;;;;;;11.13;8.10;;;845.70;1792.00;;;;;;5111302;28;20475;-78
2021/08/14 07:00:31;;;;;;;14.73;8.48;;;870.40;1766.40;;;;;;5114820;28;20019;-78
2021/08/14 07:02:57;;;;;;;12.43;8.55;;;845.70;1766.40;;;;;;5104609;28;20028;-78
2021/08/14 07:05:23;;;;;;;13.13;7.93;;;870.40;1766.40;;;;;;5114615;27;20051;-77
2021/08/14 07:07:49;;;;;;;11.32;7.85;;;870.60;1740.80;;;;;;5111902;28;20036;-78
2021/08/14 07:10:15;;;;;;;13.68;8.93;;;870.80;1715.20;;;;;;5111941;28;20433;-78
2021/08/14 07:12:43;;;;;;;12.35;8.18;;;870.60;1715.20;;;;;;5102780;28;20028;-78
2021/08/14 07:15:09;;;;;;;11.60;7.63;;;870.60;1715.20;;;;;;5114886;27;20027;-78
2021/08/14 07:17:35;;;;;;;12.40;8.30;;;870.80;1715.20;;;;;;5110440;28;20016;-78
2021/08/14 07:20:01;;;;;;;13.63;7.50;;;870.90;1689.60;;;;;;5110833;27;20049;-78
2021/08/14 07:22:27;;;;;;;11.18;7.40;;;870.90;1638.40;;;;;;5102322;28;20023;-78
2021/08/14 07:24:53;;;;;;;8.30;6.75;;;870.90;1638.40;;;;;;5103192;28;20028;-77
2021/08/14 07:27:18;;;;;;;13.93;8.73;;;871.00;1664.00;;;;;;5111347;28;20379;-78
2021/08/14 07:29:44;;;;;;;9.52;7.18;;;871.10;1638.40;;;;;;5113257;27;20046;-78
2021/08/14 07:32:11;;;;;;;11.57;6.93;;;871.10;1612.80;;;;;;5109206;28;20030;-78
2021/08/14 07:34:37;;;;;;;13.57;8.98;;;871.20;1587.20;;;;;;5109201;28;20019;-79
2021/08/14 07:37:03;;;;;;;12.52;7.78;;;871.00;1638.40;;;;;;5114108;27;20051;-79
2021/08/14 07:39:29;;;;;;;11.65;8.20;;;871.20;1664.00;;;;;;5115082;28;20048;-79
2021/08/14 07:41:55;;;;;;;11.98;7.03;;;896.10;1638.40;;;;;;5110528;28;20062;-79
2021/08/14 07:44:20;;;;;;;11.68;7.70;;;896.10;1612.80;;;;;;5110195;28;20051;-79
2021/08/14 07:46:47;;;;;;;13.07;8.13;;;896.00;1612.80;;;;;;5113468;28;20563;-79
2021/08/14 07:49:13;;;;;;;13.05;6.68;;;896.10;1612.80;;;;;;5107115;28;20028;-79
2021/08/14 07:51:38;;;;;;;11.32;8.13;;;896.30;1612.80;;;;;;5110893;28;20023;-79
2021/08/14 07:54:04;;;;;;;9.65;7.63;;;896.40;1587.20;;;;;;5110466;28;20020;-79
2021/08/14 07:56:30;;;;;;;13.55;8.10;;;896.80;1561.60;;;;;;5105285;28;20027;-80
2021/08/14 07:58:55;;;;;;;15.73;9.30;;;896.90;1587.20;;;;;;5109773;28;20032;-80
2021/08/14 08:01:21;;;;;;;10.23;7.80;;;896.90;1510.40;;;;;;5105180;28;20030;-79
2021/08/14 08:03:47;;;;;;;10.95;7.47;;;896.80;1561.60;;;;;;5100773;28;20385;-78
2021/08/14 08:06:12;;;;;;;10.10;7.28;;;921.60;1561.60;;;;;;5104685;28;20507;-78
2021/08/14 08:08:38;;;;;;;13.23;8.55;;;896.90;1510.40;;;;;;5105640;27;20035;-78
2021/08/14 08:11:04;;;;;;;10.23;7.57;;;896.90;1536.00;;;;;;5104491;28;20862;-78
2021/08/14 08:13:30;;;;;;;12.23;7.75;;;921.60;1561.60;;;;;;5103737;28;20030;-78
2021/08/14 08:15:56;;;;;;;10.38;7.10;;;921.80;1536.00;;;;;;5100312;28;20098;-78
2021/08/14 08:18:21;;;;;;;10.75;6.20;;;921.70;1536.00;;;;;;5104750;28;20024;-78
2021/08/14 08:20:47;;;;;;;9.05;6.80;;;896.80;1484.80;;;;;;5110571;28;20032;-78
2021/08/14 08:23:14;;;;;;;10.30;7.63;;;896.70;1510.40;;;;;;5110937;28;20117;-78
2021/08/14 08:25:40;;;;;;;10.32;7.75;;;921.70;1536.00;;;;;;5112966;28;20073;-77
2021/08/14 08:28:06;;;;;;;14.70;6.63;;;922.10;1510.40;;;;;;5100720;28;20031;-76
2021/08/14 08:30:32;;;;;;;11.45;7.20;;;922.10;1484.80;;;;;;5106757;28;20445;-78
2021/08/14 08:32:58;;;;;;;7.55;6.18;;;922.00;1484.80;;;;;;5110477;28;20036;-77
2021/08/14 08:35:24;;;;;;;8.23;6.35;;;922.20;1484.80;;;;;;5105265;28;20121;-77
2021/08/14 08:37:50;;;;;;;14.38;6.75;;;922.10;1459.20;;;;;;5113734;28;20029;-77
2021/08/14 08:40:17;;;;;;;9.30;6.85;;;947.20;1459.20;;;;;;5097460;28;20016;-77
2021/08/14 08:42:45;;;;;;;10.40;6.63;;;947.40;1433.60;;;;;;5109343;28;20097;-77
2021/08/14 08:45:11;;;;;;;7.70;6.28;;;947.60;1408.00;;;;;;5105107;28;20077;-76
2021/08/14 08:47:41;;;;;;;10.52;7.03;;;948.10;1382.40;;;;;;5108067;28;20024;-77
2021/08/14 08:50:09;;;;;;;11.07;8.13;;;972.90;1408.00;;;;;;5103180;28;20051;-77
2021/08/14 08:52:36;;;;;;;10.18;7.68;;;973.10;1433.60;;;;;;5104853;28;20023;-77
2021/08/14 08:55:02;;;;;;;10.38;7.00;;;973.30;1382.40;;;;;;5101037;28;20032;-78
2021/08/14 08:57:28;;;;;;;8.27;6.07;;;973.40;1382.40;;;;;;5101841;28;20031;-77
2021/08/14 08:59:54;;;;;;;10.32;6.90;;;973.60;1382.40;;;;;;5106439;28;20116;-78
2021/08/14 09:02:34;;;;;;;9.18;6.63;;;998.40;1382.40;;;;;;5101630;28;20357;-78
2021/08/14 09:05:09;;;;;;;10.00;6.38;;;998.80;1356.80;;;;;;5106839;28;20043;-78
2021/08/14 09:07:35;;;;;;;10.25;7.40;;;998.60;1331.20;;;;;;5101200;28;20032;-76
2021/08/14 09:10:01;;;;;;;9.15;7.15;;;998.70;1356.80;;;;;;5097668;28;20058;-76
2021/08/14 09:12:40;;;;;;;10.13;6.15;;;998.90;1331.20;;;;;;5105624;28;20019;-76
2021/08/14 09:15:19;;;;;;;10.68;6.78;;;999.20;1331.20;;;;;;5103934;28;20021;-76
2021/08/14 09:17:46;;;;;;;7.50;5.60;;;999.20;1305.60;;;;;;5101546;28;20095;-76
2021/08/14 09:20:17;;;;;;;7.88;6.97;;;999.00;1305.60;;;;;;5102862;28;20016;-76
2021/08/14 09:23:03;;;;;;;8.90;6.63;;;999.30;1305.60;;;;;;5103764;28;20031;-76
2021/08/14 09:25:48;;;;;;;7.78;6.10;;;1024.40;1280.00;;;;;;5104983;28;20034;-76
2021/08/14 09:28:17;;;;;;;8.48;5.78;;;999.30;1254.40;;;;;;5106038;28;20031;-76
2021/08/14 09:30:57;;;;;;;9.70;5.95;;;999.00;1228.80;;;;;;5104695;28;20049;-76
2021/08/14 09:33:28;;;;;;;10.88;6.25;;;1024.20;1228.80;;;;;;5104938;28;20095;-75
2021/08/14 09:35:54;;;;;;;12.30;6.55;;;1024.50;1228.80;;;;;;5108974;28;21505;-76
2021/08/14 09:38:20;;;;;;;7.22;6.22;;;1049.60;1228.80;;;;;;5103828;28;20023;-76
2021/08/14 09:40:47;;;;;;;7.07;5.82;;;1024.50;1203.20;;;;;;5110997;28;20034;-76
2021/08/14 09:43:14;;;;;;;7.65;5.65;;;1049.60;1228.80;;;;;;5106230;28;20023;-76
2021/08/14 09:45:54;;;;;;;6.88;4.75;;;1050.10;1203.20;;;;;;5104324;28;20042;-76
2021/08/14 09:48:24;;;;;;;6.30;5.18;;;1024.80;1152.00;;;;;;5107977;28;20434;-77
2021/08/14 09:50:51;;;;;;;8.13;5.75;;;1049.80;1152.00;;;;;;5104671;28;20034;-77
2021/08/14 09:53:20;;;;;;;6.00;5.22;;;1050.40;1152.00;;;;;;5104425;28;20028;-76
2021/08/14 09:56:10;;;;;;;6.93;5.07;;;1050.50;1126.40;;;;;;5097816;28;20487;-77
2021/08/14 09:58:40;;;;;;;12.48;5.55;;;1075.50;1100.80;;;;;;5104920;28;20024;-76
2021/08/14 10:01:09;;;;;;;10.10;6.15;;;1050.40;1126.40;;;;;;5104247;28;20065;-77
2021/08/14 10:03:36;;;;;;;9.95;7.60;;;1075.30;1100.80;;;;;;5099912;28;20487;-77
2021/08/14 10:06:02;;;;;;;9.15;6.32;;;1075.50;1100.80;;;;;;5099292;28;20048;-76
2021/08/14 10:08:28;;;;;;;8.20;6.30;;;1076.00;1049.60;;;;;;5104375;28;20111;-76
2021/08/14 10:10:56;;;;;;;8.05;5.93;;;1101.00;1100.80;;;;;;5101204;28;20024;-76
2021/08/14 10:13:22;;;;;;;8.52;5.53;;;1101.00;1075.20;;;;;;5101948;28;20024;-76
2021/08/14 10:15:49;;;;;;;16.38;6.22;;;1101.00;1075.20;;;;;;5105716;28;20023;-76
2021/08/14 10:18:17;;;;;;;14.18;5.57;;;1101.10;1075.20;;;;;;5103499;28;20069;-75
2021/08/14 10:20:43;;;;;;;7.30;5.95;;;1101.10;1075.20;;;;;;5103049;28;20376;-75
2021/08/14 10:23:11;;;;;;;7.30;5.15;;;1100.90;1075.20;;;;;;5134361;27;20492;-75
2021/08/14 10:25:41;;;;;;;8.15;5.75;;;1101.30;1049.60;;;;;;5101452;28;20035;-76
2021/08/14 10:28:08;;;;;;;9.40;5.32;;;1076.10;1049.60;;;;;;5096397;28;20073;-76
2021/08/14 10:30:41;;;;;;;6.82;5.55;;;1101.10;1049.60;;;;;;5103778;28;20046;-76
2021/08/14 10:33:28;;;;;;;8.95;5.88;;;1126.40;1049.60;;;;;;5106122;28;20142;-73
2021/08/14 10:35:55;;;;;;;9.52;6.15;;;1126.40;1049.60;;;;;;5106370;28;20085;-73
2021/08/14 10:38:44;;;;;;;7.57;5.38;;;1126.40;1049.60;;;;;;5102192;28;20059;-74
2021/08/14 10:41:10;;;;;;;7.22;4.95;;;1126.60;1049.60;;;;;;5110710;28;20110;-74
2021/08/14 10:44:09;;;;;;;6.95;5.18;;;1126.70;1024.00;;;;;;5101689;28;20027;-74
2021/08/14 10:46:36;;;;;;;7.05;5.32;;;1126.90;1024.00;;;;;;5089333;28;20032;-73
2021/08/14 10:49:02;;;;;;;6.38;4.90;;;1127.10;1024.00;;;;;;5090558;28;20090;-72
2021/08/14 10:51:52;;;;;;;6.75;4.63;;;1127.20;1024.00;;;;;;5091012;28;20032;-74
2021/08/14 10:54:30;;;;;;;10.00;6.35;;;1127.00;1024.00;;;;;;5072671;28;20024;-74
2021/08/14 10:56:57;;;;;;;8.05;6.43;;;1127.20;1024.00;;;;;;5090700;28;20395;-73
2021/08/14 10:59:38;;;;;;;6.28;5.07;;;1127.00;998.40;;;;;;5091763;28;20378;-74
2021/08/14 11:02:06;;;;;;;6.97;4.97;;;1126.70;1024.00;;;;;;5090308;28;20036;-74
2021/08/14 11:04:56;;;;;;;8.50;5.10;;;1126.70;1024.00;;;;;;5091308;28;20056;-74
2021/08/14 11:07:22;;;;;;;10.38;6.13;;;1127.20;998.40;;;;;;5015933;28;20036;-74
2021/08/14 11:09:54;;;;;;;6.20;5.10;;;1127.30;1024.00;;;;;;5033901;28;20164;-74
2021/08/14 11:12:40;;;;;;;6.43;5.07;;;1127.30;1024.00;;;;;;5025552;28;20026;-74
2021/08/14 11:15:28;;;;;;;8.40;5.63;;;1152.60;998.40;;;;;;5027377;28;20034;-74
2021/08/14 11:18:01;;;;;;;9.25;7.25;;;1152.30;998.40;;;;;;5028830;28;21018;-73
2021/08/14 11:20:32;;;;;;;13.30;6.75;;;1126.70;998.40;;;;;;5023618;28;20089;-73
2021/08/14 11:23:00;;;;;;;6.10;5.50;;;1101.70;998.40;;;;;;5038501;28;20036;-73
2021/08/14 11:25:27;;;;;;;6.80;5.32;;;1126.40;1024.00;;;;;;5049788;28;20037;-75
2021/08/14 11:28:07;;;;;;;6.78;5.82;;;1126.40;998.40;;;;;;5052277;28;20033;-77
2021/08/14 11:30:38;;;;;;;7.80;5.85;;;1126.40;1024.00;;;;;;5052536;28;20033;-76
2021/08/14 11:33:06;;;;;;;8.77;5.07;;;1101.50;998.40;;;;;;5045733;28;20569;-76
2021/08/14 11:35:33;;;;;;;8.23;5.45;;;1101.30;1024.00;;;;;;5049127;28;20089;-78
2021/08/14 11:38:11;;;;;;;8.75;5.53;;;1101.60;998.40;;;;;;5033526;28;20034;-77
2021/08/14 11:40:41;;;;;;;7.50;5.75;;;1126.40;998.40;;;;;;5046306;28;20026;-76
2021/08/14 11:43:12;;;;;;;8.32;4.93;;;1127.20;1024.00;;;;;;5023314;28;20038;-76
2021/08/14 11:45:39;;;;;;;6.68;5.97;;;1126.70;998.40;;;;;;5101587;28;20147;-77
2021/08/14 11:48:07;;;;;;;11.65;6.80;;;1126.80;1024.00;;;;;;5107390;28;20036;-78
2021/08/14 11:50:33;;;;;;;8.65;5.38;;;1126.90;1024.00;;;;;;5098245;28;20028;-78
2021/08/14 11:52:59;;;;;;;6.18;5.53;;;1126.70;998.40;;;;;;5098294;28;20376;-78
2021/08/14 11:55:24;;;;;;;6.53;5.35;;;1127.00;998.40;;;;;;5099463;28;20027;-77
2021/08/14 11:57:52;;;;;;;8.73;6.22;;;1152.00;998.40;;;;;;5099771;28;20036;-77
2021/08/14 12:00:17;;;;;;;9.45;5.80;;;1152.70;972.80;;;;;;5103433;28;20015;-77
2021/08/14 12:02:48;;;;;;;9.00;5.38;;;1152.80;998.40;;;;;;5094665;28;20069;-77
2021/08/14 12:05:23;;;;;;;10.35;5.53;;;1177.60;972.80;;;;;;5103165;28;20078;-77
2021/08/14 12:07:48;;;;;;;11.63;5.10;;;1152.30;998.40;;;;;;5097359;28;20096;-77
2021/08/14 12:10:14;;;;;;;8.38;5.85;;;1101.60;998.40;;;;;;5098541;28;20028;-77